sensor_id;sensor_type;location;lat;lon;timestamp;P1;durP1;ratioP1;P2;durP2;ratioP2
85035;SDS011;75357;49.780;9.448;2024-03-17T00:00:51;4.73;;;2.97;;
85035;SDS011;75357;49.780;9.448;2024-03-17T00:03:19;4.60;;;3.43;;
85035;SDS011;75357;49.780;9.448;2024-03-17T00:05:47;4.43;;;3.03;;
85035;SDS011;75357;49.780;9.448;2024-03-17T00:08:14;4.70;;;3.20;;
85035;SDS011;75357;49.780;9.448;2024-03-17T00:10:40;4.63;;;3.63;;
85035;SDS011;75357;49.780;9.448;2024-03-17T00:13:08;4.97;;;3.30;;
85035;SDS011;75357;49.780;9.448;2024-03-17T00:15:34;4.57;;;3.30;;
85035;SDS011;75357;49.780;9.448;2024-03-17T00:18:02;4.33;;;2.90;;
85035;SDS011;75357;49.780;9.448;2024-03-17T00:20:28;5.77;;;3.60;;
85035;SDS011;75357;49.780;9.448;2024-03-17T00:22:56;4.00;;;2.70;;
85035;SDS011;75357;49.780;9.448;2024-03-17T00:25:22;3.93;;;2.87;;
85035;SDS011;75357;49.780;9.448;2024-03-17T00:27:49;3.30;;;2.83;;
85035;SDS011;75357;49.780;9.448;2024-03-17T00:30:16;4.27;;;2.60;;
85035;SDS011;75357;49.780;9.448;2024-03-17T00:32:44;2.80;;;2.40;;
85035;SDS011;75357;49.780;9.448;2024-03-17T00:35:10;4.53;;;2.90;;
85035;SDS011;75357;49.780;9.448;2024-03-17T00:37:39;3.67;;;2.73;;
85035;SDS011;75357;49.780;9.448;2024-03-17T00:40:06;3.93;;;2.70;;
85035;SDS011;75357;49.780;9.448;2024-03-17T00:42:33;3.23;;;2.60;;
85035;SDS011;75357;49.780;9.448;2024-03-17T00:45:00;3.50;;;2.70;;
85035;SDS011;75357;49.780;9.448;2024-03-17T00:47:31;4.03;;;2.80;;
85035;SDS011;75357;49.780;9.448;2024-03-17T00:49:59;4.47;;;2.60;;
85035;SDS011;75357;49.780;9.448;2024-03-17T00:52:26;3.50;;;2.70;;
85035;SDS011;75357;49.780;9.448;2024-03-17T00:54:53;4.23;;;2.80;;
85035;SDS011;75357;49.780;9.448;2024-03-17T00:57:21;4.57;;;2.80;;
85035;SDS011;75357;49.780;9.448;2024-03-17T00:59:47;3.80;;;2.67;;
85035;SDS011;75357;49.780;9.448;2024-03-17T01:02:15;4.40;;;3.00;;
85035;SDS011;75357;49.780;9.448;2024-03-17T01:04:42;4.20;;;3.23;;
85035;SDS011;75357;49.780;9.448;2024-03-17T01:07:10;5.37;;;3.70;;
85035;SDS011;75357;49.780;9.448;2024-03-17T01:09:37;6.30;;;3.37;;
85035;SDS011;75357;49.780;9.448;2024-03-17T01:12:05;5.80;;;3.60;;
85035;SDS011;75357;49.780;9.448;2024-03-17T01:14:31;5.57;;;3.60;;
85035;SDS011;75357;49.780;9.448;2024-03-17T01:17:00;4.57;;;3.43;;
85035;SDS011;75357;49.780;9.448;2024-03-17T01:19:30;3.97;;;3.27;;
85035;SDS011;75357;49.780;9.448;2024-03-17T01:22:00;5.10;;;2.63;;
85035;SDS011;75357;49.780;9.448;2024-03-17T01:24:26;3.27;;;2.90;;
85035;SDS011;75357;49.780;9.448;2024-03-17T01:27:00;4.60;;;3.07;;
85035;SDS011;75357;49.780;9.448;2024-03-17T01:29:27;4.27;;;3.07;;
85035;SDS011;75357;49.780;9.448;2024-03-17T01:31:54;4.33;;;2.97;;
85035;SDS011;75357;49.780;9.448;2024-03-17T01:34:21;4.73;;;2.93;;
85035;SDS011;75357;49.780;9.448;2024-03-17T01:36:49;3.20;;;2.70;;
85035;SDS011;75357;49.780;9.448;2024-03-17T01:39:15;3.90;;;2.83;;
85035;SDS011;75357;49.780;9.448;2024-03-17T01:41:44;4.27;;;2.87;;
85035;SDS011;75357;49.780;9.448;2024-03-17T01:44:22;3.80;;;3.00;;
85035;SDS011;75357;49.780;9.448;2024-03-17T01:46:57;4.57;;;2.77;;
85035;SDS011;75357;49.780;9.448;2024-03-17T01:49:26;5.60;;;2.80;;
85035;SDS011;75357;49.780;9.448;2024-03-17T01:51:52;4.70;;;2.80;;
85035;SDS011;75357;49.780;9.448;2024-03-17T01:54:21;4.50;;;2.60;;
85035;SDS011;75357;49.780;9.448;2024-03-17T01:56:47;4.37;;;2.70;;
85035;SDS011;75357;49.780;9.448;2024-03-17T01:59:15;4.13;;;3.17;;
85035;SDS011;75357;49.780;9.448;2024-03-17T02:01:41;3.90;;;3.00;;
85035;SDS011;75357;49.780;9.448;2024-03-17T02:04:09;3.33;;;2.60;;
85035;SDS011;75357;49.780;9.448;2024-03-17T02:06:35;4.83;;;2.80;;
85035;SDS011;75357;49.780;9.448;2024-03-17T02:09:03;4.20;;;2.70;;
85035;SDS011;75357;49.780;9.448;2024-03-17T02:11:30;4.17;;;2.93;;
85035;SDS011;75357;49.780;9.448;2024-03-17T02:14:01;3.43;;;2.77;;
85035;SDS011;75357;49.780;9.448;2024-03-17T02:16:28;3.00;;;2.57;;
85035;SDS011;75357;49.780;9.448;2024-03-17T02:18:55;3.10;;;2.70;;
85035;SDS011;75357;49.780;9.448;2024-03-17T02:21:23;3.40;;;2.70;;
85035;SDS011;75357;49.780;9.448;2024-03-17T02:23:53;2.97;;;2.67;;
85035;SDS011;75357;49.780;9.448;2024-03-17T02:26:19;5.00;;;3.00;;
85035;SDS011;75357;49.780;9.448;2024-03-17T02:28:48;3.00;;;2.70;;
85035;SDS011;75357;49.780;9.448;2024-03-17T02:31:16;3.00;;;2.57;;
85035;SDS011;75357;49.780;9.448;2024-03-17T02:33:44;3.17;;;2.50;;
85035;SDS011;75357;49.780;9.448;2024-03-17T02:36:11;4.10;;;2.70;;
85035;SDS011;75357;49.780;9.448;2024-03-17T02:38:39;2.90;;;2.10;;
85035;SDS011;75357;49.780;9.448;2024-03-17T02:41:25;2.83;;;2.20;;
85035;SDS011;75357;49.780;9.448;2024-03-17T02:43:54;2.70;;;2.27;;
85035;SDS011;75357;49.780;9.448;2024-03-17T02:46:21;4.20;;;2.30;;
85035;SDS011;75357;49.780;9.448;2024-03-17T02:48:50;3.13;;;2.20;;
85035;SDS011;75357;49.780;9.448;2024-03-17T02:51:21;2.77;;;2.30;;
85035;SDS011;75357;49.780;9.448;2024-03-17T02:53:50;3.50;;;2.20;;
85035;SDS011;75357;49.780;9.448;2024-03-17T02:56:17;2.60;;;2.30;;
85035;SDS011;75357;49.780;9.448;2024-03-17T02:58:45;3.23;;;2.23;;
85035;SDS011;75357;49.780;9.448;2024-03-17T03:01:15;3.83;;;2.60;;
85035;SDS011;75357;49.780;9.448;2024-03-17T03:03:42;3.10;;;2.37;;
85035;SDS011;75357;49.780;9.448;2024-03-17T03:06:10;3.53;;;2.37;;
85035;SDS011;75357;49.780;9.448;2024-03-17T03:08:39;3.37;;;2.37;;
85035;SDS011;75357;49.780;9.448;2024-03-17T03:11:08;4.23;;;2.50;;
85035;SDS011;75357;49.780;9.448;2024-03-17T03:13:37;4.60;;;2.70;;
85035;SDS011;75357;49.780;9.448;2024-03-17T03:16:07;5.77;;;2.60;;
85035;SDS011;75357;49.780;9.448;2024-03-17T03:18:37;2.60;;;2.40;;
85035;SDS011;75357;49.780;9.448;2024-03-17T03:21:05;5.07;;;2.80;;
85035;SDS011;75357;49.780;9.448;2024-03-17T03:23:33;3.37;;;2.53;;
85035;SDS011;75357;49.780;9.448;2024-03-17T03:26:02;4.70;;;2.70;;
85035;SDS011;75357;49.780;9.448;2024-03-17T03:28:33;3.37;;;2.60;;
85035;SDS011;75357;49.780;9.448;2024-03-17T03:31:00;4.33;;;2.70;;
85035;SDS011;75357;49.780;9.448;2024-03-17T03:33:28;3.40;;;2.70;;
85035;SDS011;75357;49.780;9.448;2024-03-17T03:35:55;2.90;;;2.40;;
85035;SDS011;75357;49.780;9.448;2024-03-17T03:38:23;4.97;;;2.60;;
85035;SDS011;75357;49.780;9.448;2024-03-17T03:40:50;5.03;;;2.60;;
85035;SDS011;75357;49.780;9.448;2024-03-17T03:43:19;3.50;;;2.50;;
85035;SDS011;75357;49.780;9.448;2024-03-17T03:45:46;2.53;;;2.23;;
85035;SDS011;75357;49.780;9.448;2024-03-17T03:48:13;3.63;;;2.40;;
85035;SDS011;75357;49.780;9.448;2024-03-17T03:50:42;3.60;;;2.67;;
85035;SDS011;75357;49.780;9.448;2024-03-17T03:53:10;3.10;;;2.60;;
85035;SDS011;75357;49.780;9.448;2024-03-17T03:55:38;4.03;;;2.30;;
85035;SDS011;75357;49.780;9.448;2024-03-17T03:58:07;3.90;;;2.27;;
85035;SDS011;75357;49.780;9.448;2024-03-17T04:00:35;2.77;;;2.20;;
85035;SDS011;75357;49.780;9.448;2024-03-17T04:03:05;4.67;;;2.50;;
85035;SDS011;75357;49.780;9.448;2024-03-17T04:05:32;2.60;;;2.40;;
85035;SDS011;75357;49.780;9.448;2024-03-17T04:08:00;3.70;;;2.40;;
85035;SDS011;75357;49.780;9.448;2024-03-17T04:10:28;4.40;;;2.70;;
85035;SDS011;75357;49.780;9.448;2024-03-17T04:12:55;2.87;;;2.47;;
85035;SDS011;75357;49.780;9.448;2024-03-17T04:15:23;3.23;;;2.20;;
85035;SDS011;75357;49.780;9.448;2024-03-17T04:17:51;4.73;;;2.43;;
85035;SDS011;75357;49.780;9.448;2024-03-17T04:20:18;3.33;;;2.50;;
85035;SDS011;75357;49.780;9.448;2024-03-17T04:22:45;3.17;;;2.40;;
85035;SDS011;75357;49.780;9.448;2024-03-17T04:25:14;2.63;;;1.97;;
85035;SDS011;75357;49.780;9.448;2024-03-17T04:27:41;3.63;;;2.33;;
85035;SDS011;75357;49.780;9.448;2024-03-17T04:30:09;3.90;;;2.00;;
85035;SDS011;75357;49.780;9.448;2024-03-17T04:32:37;2.77;;;2.13;;
85035;SDS011;75357;49.780;9.448;2024-03-17T04:35:06;3.63;;;2.07;;
85035;SDS011;75357;49.780;9.448;2024-03-17T04:37:34;3.20;;;2.27;;
85035;SDS011;75357;49.780;9.448;2024-03-17T04:40:05;4.10;;;1.90;;
85035;SDS011;75357;49.780;9.448;2024-03-17T04:42:35;3.03;;;2.20;;
85035;SDS011;75357;49.780;9.448;2024-03-17T04:45:05;2.47;;;2.23;;
85035;SDS011;75357;49.780;9.448;2024-03-17T04:47:35;3.80;;;2.30;;
85035;SDS011;75357;49.780;9.448;2024-03-17T04:50:02;3.30;;;2.03;;
85035;SDS011;75357;49.780;9.448;2024-03-17T04:52:30;2.83;;;2.23;;
85035;SDS011;75357;49.780;9.448;2024-03-17T04:54:58;5.03;;;2.00;;
85035;SDS011;75357;49.780;9.448;2024-03-17T04:57:26;6.70;;;2.30;;
85035;SDS011;75357;49.780;9.448;2024-03-17T04:59:54;3.37;;;2.20;;
85035;SDS011;75357;49.780;9.448;2024-03-17T05:02:22;2.53;;;2.10;;
85035;SDS011;75357;49.780;9.448;2024-03-17T05:04:50;2.90;;;2.10;;
85035;SDS011;75357;49.780;9.448;2024-03-17T05:07:18;4.00;;;2.33;;
85035;SDS011;75357;49.780;9.448;2024-03-17T05:09:46;5.17;;;2.20;;
85035;SDS011;75357;49.780;9.448;2024-03-17T05:12:15;4.83;;;2.10;;
85035;SDS011;75357;49.780;9.448;2024-03-17T05:14:43;6.17;;;2.30;;
85035;SDS011;75357;49.780;9.448;2024-03-17T05:17:11;5.07;;;2.40;;
85035;SDS011;75357;49.780;9.448;2024-03-17T05:19:39;2.80;;;2.33;;
85035;SDS011;75357;49.780;9.448;2024-03-17T05:22:06;5.67;;;2.60;;
85035;SDS011;75357;49.780;9.448;2024-03-17T05:24:34;4.37;;;2.37;;
85035;SDS011;75357;49.780;9.448;2024-03-17T05:27:01;5.60;;;2.97;;
85035;SDS011;75357;49.780;9.448;2024-03-17T05:29:29;7.23;;;3.80;;
85035;SDS011;75357;49.780;9.448;2024-03-17T05:31:56;5.60;;;3.73;;
85035;SDS011;75357;49.780;9.448;2024-03-17T05:34:23;7.20;;;4.73;;
85035;SDS011;75357;49.780;9.448;2024-03-17T05:36:51;6.23;;;4.27;;
85035;SDS011;75357;49.780;9.448;2024-03-17T05:39:19;6.13;;;4.10;;
85035;SDS011;75357;49.780;9.448;2024-03-17T05:41:48;6.63;;;4.10;;
85035;SDS011;75357;49.780;9.448;2024-03-17T05:44:15;5.47;;;3.93;;
85035;SDS011;75357;49.780;9.448;2024-03-17T05:46:43;5.33;;;3.40;;
85035;SDS011;75357;49.780;9.448;2024-03-17T05:49:11;4.63;;;3.40;;
85035;SDS011;75357;49.780;9.448;2024-03-17T05:51:38;6.93;;;4.20;;
85035;SDS011;75357;49.780;9.448;2024-03-17T05:54:06;7.67;;;4.20;;
85035;SDS011;75357;49.780;9.448;2024-03-17T05:56:33;6.63;;;4.13;;
85035;SDS011;75357;49.780;9.448;2024-03-17T05:59:01;7.80;;;4.30;;
85035;SDS011;75357;49.780;9.448;2024-03-17T06:01:28;5.70;;;3.87;;
85035;SDS011;75357;49.780;9.448;2024-03-17T06:03:56;5.27;;;3.50;;
85035;SDS011;75357;49.780;9.448;2024-03-17T06:06:23;5.40;;;3.37;;
85035;SDS011;75357;49.780;9.448;2024-03-17T06:08:50;6.00;;;4.20;;
85035;SDS011;75357;49.780;9.448;2024-03-17T06:11:18;6.80;;;3.87;;
85035;SDS011;75357;49.780;9.448;2024-03-17T06:13:45;5.60;;;3.80;;
85035;SDS011;75357;49.780;9.448;2024-03-17T06:16:12;6.83;;;3.40;;
85035;SDS011;75357;49.780;9.448;2024-03-17T06:18:41;4.40;;;3.20;;
85035;SDS011;75357;49.780;9.448;2024-03-17T06:21:08;4.27;;;3.20;;
85035;SDS011;75357;49.780;9.448;2024-03-17T06:23:36;3.93;;;3.20;;
85035;SDS011;75357;49.780;9.448;2024-03-17T06:26:03;5.27;;;3.80;;
85035;SDS011;75357;49.780;9.448;2024-03-17T06:28:32;7.23;;;5.20;;
85035;SDS011;75357;49.780;9.448;2024-03-17T06:31:00;9.13;;;6.30;;
85035;SDS011;75357;49.780;9.448;2024-03-17T06:33:30;7.67;;;5.83;;
85035;SDS011;75357;49.780;9.448;2024-03-17T06:35:58;7.70;;;5.00;;
85035;SDS011;75357;49.780;9.448;2024-03-17T06:38:30;7.60;;;4.73;;
85035;SDS011;75357;49.780;9.448;2024-03-17T06:40:57;6.97;;;4.67;;
85035;SDS011;75357;49.780;9.448;2024-03-17T06:43:25;6.57;;;4.70;;
85035;SDS011;75357;49.780;9.448;2024-03-17T06:45:53;7.30;;;4.73;;
85035;SDS011;75357;49.780;9.448;2024-03-17T06:48:23;11.07;;;5.97;;
85035;SDS011;75357;49.780;9.448;2024-03-17T06:50:52;9.13;;;5.57;;
85035;SDS011;75357;49.780;9.448;2024-03-17T06:53:21;10.20;;;5.70;;
85035;SDS011;75357;49.780;9.448;2024-03-17T06:55:55;6.37;;;4.20;;
85035;SDS011;75357;49.780;9.448;2024-03-17T06:58:24;6.33;;;4.47;;
85035;SDS011;75357;49.780;9.448;2024-03-17T07:00:54;8.30;;;5.10;;
85035;SDS011;75357;49.780;9.448;2024-03-17T07:03:22;6.90;;;5.20;;
85035;SDS011;75357;49.780;9.448;2024-03-17T07:05:57;5.87;;;4.53;;
85035;SDS011;75357;49.780;9.448;2024-03-17T07:08:27;7.97;;;5.93;;
85035;SDS011;75357;49.780;9.448;2024-03-17T07:11:00;9.47;;;6.80;;
85035;SDS011;75357;49.780;9.448;2024-03-17T07:13:30;5.57;;;4.70;;
85035;SDS011;75357;49.780;9.448;2024-03-17T07:15:59;6.20;;;3.80;;
85035;SDS011;75357;49.780;9.448;2024-03-17T07:18:28;4.77;;;3.70;;
85035;SDS011;75357;49.780;9.448;2024-03-17T07:20:56;5.27;;;3.80;;
85035;SDS011;75357;49.780;9.448;2024-03-17T07:23:28;6.67;;;4.77;;
85035;SDS011;75357;49.780;9.448;2024-03-17T07:25:56;4.73;;;4.03;;
85035;SDS011;75357;49.780;9.448;2024-03-17T07:28:24;6.83;;;5.20;;
85035;SDS011;75357;49.780;9.448;2024-03-17T07:30:53;7.07;;;5.43;;
85035;SDS011;75357;49.780;9.448;2024-03-17T07:33:21;10.90;;;6.70;;
85035;SDS011;75357;49.780;9.448;2024-03-17T07:35:53;9.27;;;6.33;;
85035;SDS011;75357;49.780;9.448;2024-03-17T07:38:27;9.27;;;6.70;;
85035;SDS011;75357;49.780;9.448;2024-03-17T07:40:56;9.20;;;6.33;;
85035;SDS011;75357;49.780;9.448;2024-03-17T07:43:24;14.93;;;9.97;;
85035;SDS011;75357;49.780;9.448;2024-03-17T07:46:02;11.40;;;8.00;;
85035;SDS011;75357;49.780;9.448;2024-03-17T07:48:39;9.87;;;6.77;;
85035;SDS011;75357;49.780;9.448;2024-03-17T07:51:08;9.43;;;5.80;;
85035;SDS011;75357;49.780;9.448;2024-03-17T07:53:38;9.57;;;5.97;;
85035;SDS011;75357;49.780;9.448;2024-03-17T07:56:10;7.90;;;5.90;;
85035;SDS011;75357;49.780;9.448;2024-03-17T07:58:40;7.57;;;6.10;;
85035;SDS011;75357;49.780;9.448;2024-03-17T08:01:11;11.50;;;6.30;;
85035;SDS011;75357;49.780;9.448;2024-03-17T08:03:39;10.30;;;5.63;;
85035;SDS011;75357;49.780;9.448;2024-03-17T08:06:09;8.00;;;5.00;;
85035;SDS011;75357;49.780;9.448;2024-03-17T08:08:38;7.13;;;5.00;;
85035;SDS011;75357;49.780;9.448;2024-03-17T08:11:05;8.60;;;5.30;;
85035;SDS011;75357;49.780;9.448;2024-03-17T08:13:33;5.40;;;4.33;;
85035;SDS011;75357;49.780;9.448;2024-03-17T08:16:04;7.20;;;5.30;;
85035;SDS011;75357;49.780;9.448;2024-03-17T08:18:34;6.87;;;5.10;;
85035;SDS011;75357;49.780;9.448;2024-03-17T08:21:02;7.00;;;4.70;;
85035;SDS011;75357;49.780;9.448;2024-03-17T08:23:32;7.37;;;4.90;;
85035;SDS011;75357;49.780;9.448;2024-03-17T08:26:01;12.03;;;8.27;;
85035;SDS011;75357;49.780;9.448;2024-03-17T08:28:29;8.90;;;6.50;;
85035;SDS011;75357;49.780;9.448;2024-03-17T08:30:58;7.27;;;4.80;;
85035;SDS011;75357;49.780;9.448;2024-03-17T08:33:27;5.77;;;4.67;;
85035;SDS011;75357;49.780;9.448;2024-03-17T08:38:26;8.23;;;4.60;;
85035;SDS011;75357;49.780;9.448;2024-03-17T08:40:54;5.07;;;3.87;;
85035;SDS011;75357;49.780;9.448;2024-03-17T08:43:23;4.43;;;3.40;;
85035;SDS011;75357;49.780;9.448;2024-03-17T08:45:54;5.47;;;3.93;;
85035;SDS011;75357;49.780;9.448;2024-03-17T08:48:27;6.07;;;3.60;;
85035;SDS011;75357;49.780;9.448;2024-03-17T08:50:56;4.37;;;3.50;;
85035;SDS011;75357;49.780;9.448;2024-03-17T08:53:25;5.53;;;3.33;;
85035;SDS011;75357;49.780;9.448;2024-03-17T08:55:53;5.87;;;3.70;;
85035;SDS011;75357;49.780;9.448;2024-03-17T08:58:21;5.67;;;3.50;;
85035;SDS011;75357;49.780;9.448;2024-03-17T09:00:49;5.17;;;3.70;;
85035;SDS011;75357;49.780;9.448;2024-03-17T09:03:16;4.43;;;3.67;;
85035;SDS011;75357;49.780;9.448;2024-03-17T09:05:45;4.43;;;3.33;;
85035;SDS011;75357;49.780;9.448;2024-03-17T09:08:17;5.03;;;3.20;;
85035;SDS011;75357;49.780;9.448;2024-03-17T09:10:46;6.03;;;3.80;;
85035;SDS011;75357;49.780;9.448;2024-03-17T09:13:18;5.47;;;3.40;;
85035;SDS011;75357;49.780;9.448;2024-03-17T09:15:58;6.03;;;3.53;;
85035;SDS011;75357;49.780;9.448;2024-03-17T09:18:30;5.57;;;3.60;;
85035;SDS011;75357;49.780;9.448;2024-03-17T09:21:07;5.27;;;3.70;;
85035;SDS011;75357;49.780;9.448;2024-03-17T09:23:35;6.47;;;3.90;;
85035;SDS011;75357;49.780;9.448;2024-03-17T09:26:04;5.73;;;3.57;;
85035;SDS011;75357;49.780;9.448;2024-03-17T09:28:34;4.30;;;3.47;;
85035;SDS011;75357;49.780;9.448;2024-03-17T09:31:02;6.10;;;3.03;;
85035;SDS011;75357;49.780;9.448;2024-03-17T09:33:32;17.30;;;8.70;;
85035;SDS011;75357;49.780;9.448;2024-03-17T09:36:05;3.90;;;3.00;;
85035;SDS011;75357;49.780;9.448;2024-03-17T09:38:36;11.57;;;9.30;;
85035;SDS011;75357;49.780;9.448;2024-03-17T09:41:05;6.33;;;4.50;;
85035;SDS011;75357;49.780;9.448;2024-03-17T09:43:33;7.03;;;3.60;;
85035;SDS011;75357;49.780;9.448;2024-03-17T09:46:02;8.33;;;4.13;;
85035;SDS011;75357;49.780;9.448;2024-03-17T09:48:30;7.40;;;3.60;;
85035;SDS011;75357;49.780;9.448;2024-03-17T09:50:59;5.10;;;3.67;;
85035;SDS011;75357;49.780;9.448;2024-03-17T09:53:32;6.23;;;3.90;;
85035;SDS011;75357;49.780;9.448;2024-03-17T09:56:03;8.03;;;5.03;;
85035;SDS011;75357;49.780;9.448;2024-03-17T09:58:32;5.40;;;4.13;;
85035;SDS011;75357;49.780;9.448;2024-03-17T10:01:01;8.03;;;4.60;;
85035;SDS011;75357;49.780;9.448;2024-03-17T10:06:17;7.93;;;3.70;;
85035;SDS011;75357;49.780;9.448;2024-03-17T10:08:46;5.67;;;3.70;;
85035;SDS011;75357;49.780;9.448;2024-03-17T10:11:20;4.30;;;3.53;;
85035;SDS011;75357;49.780;9.448;2024-03-17T10:16:30;5.40;;;3.30;;
85035;SDS011;75357;49.780;9.448;2024-03-17T10:19:09;5.03;;;3.90;;
85035;SDS011;75357;49.780;9.448;2024-03-17T10:21:40;6.27;;;3.53;;
85035;SDS011;75357;49.780;9.448;2024-03-17T10:24:14;4.53;;;3.20;;
85035;SDS011;75357;49.780;9.448;2024-03-17T10:26:57;4.43;;;3.40;;
85035;SDS011;75357;49.780;9.448;2024-03-17T10:29:27;3.60;;;3.00;;
85035;SDS011;75357;49.780;9.448;2024-03-17T10:34:40;5.00;;;2.90;;
85035;SDS011;75357;49.780;9.448;2024-03-17T10:39:35;5.10;;;2.90;;
85035;SDS011;75357;49.780;9.448;2024-03-17T10:42:03;3.50;;;3.00;;
85035;SDS011;75357;49.780;9.448;2024-03-17T10:44:32;3.83;;;2.80;;
85035;SDS011;75357;49.780;9.448;2024-03-17T10:47:02;3.67;;;2.90;;
85035;SDS011;75357;49.780;9.448;2024-03-17T10:49:35;5.97;;;3.10;;
85035;SDS011;75357;49.780;9.448;2024-03-17T10:52:04;3.53;;;2.93;;
85035;SDS011;75357;49.780;9.448;2024-03-17T10:54:40;4.33;;;2.90;;
85035;SDS011;75357;49.780;9.448;2024-03-17T10:57:21;3.60;;;2.90;;
85035;SDS011;75357;49.780;9.448;2024-03-17T10:59:58;3.90;;;2.50;;
85035;SDS011;75357;49.780;9.448;2024-03-17T11:02:29;4.53;;;3.17;;
85035;SDS011;75357;49.780;9.448;2024-03-17T11:04:59;5.80;;;3.20;;
85035;SDS011;75357;49.780;9.448;2024-03-17T11:07:29;4.03;;;2.93;;
85035;SDS011;75357;49.780;9.448;2024-03-17T11:09:58;6.37;;;4.77;;
85035;SDS011;75357;49.780;9.448;2024-03-17T11:20:29;6.63;;;3.40;;
85035;SDS011;75357;49.780;9.448;2024-03-17T11:22:57;6.23;;;3.57;;
85035;SDS011;75357;49.780;9.448;2024-03-17T11:27:56;4.67;;;3.60;;
85035;SDS011;75357;49.780;9.448;2024-03-17T11:38:50;4.73;;;3.17;;
85035;SDS011;75357;49.780;9.448;2024-03-17T11:41:43;4.30;;;2.87;;
85035;SDS011;75357;49.780;9.448;2024-03-17T11:46:51;3.63;;;3.00;;
85035;SDS011;75357;49.780;9.448;2024-03-17T11:49:22;3.00;;;2.70;;
85035;SDS011;75357;49.780;9.448;2024-03-17T11:51:50;3.97;;;2.80;;
85035;SDS011;75357;49.780;9.448;2024-03-17T11:54:19;3.20;;;2.70;;
85035;SDS011;75357;49.780;9.448;2024-03-17T11:56:49;3.23;;;2.50;;
85035;SDS011;75357;49.780;9.448;2024-03-17T11:59:17;4.17;;;2.73;;
85035;SDS011;75357;49.780;9.448;2024-03-17T12:01:48;4.37;;;2.90;;
85035;SDS011;75357;49.780;9.448;2024-03-17T12:04:17;3.47;;;2.80;;
85035;SDS011;75357;49.780;9.448;2024-03-17T12:06:50;3.80;;;3.10;;
85035;SDS011;75357;49.780;9.448;2024-03-17T12:09:19;4.30;;;3.10;;
85035;SDS011;75357;49.780;9.448;2024-03-17T12:12:06;4.70;;;2.90;;
85035;SDS011;75357;49.780;9.448;2024-03-17T12:14:40;3.20;;;2.80;;
85035;SDS011;75357;49.780;9.448;2024-03-17T12:17:07;4.03;;;2.90;;
85035;SDS011;75357;49.780;9.448;2024-03-17T12:19:36;4.20;;;2.90;;
85035;SDS011;75357;49.780;9.448;2024-03-17T12:22:04;3.70;;;2.73;;
85035;SDS011;75357;49.780;9.448;2024-03-17T12:24:33;3.50;;;2.93;;
85035;SDS011;75357;49.780;9.448;2024-03-17T12:27:03;4.27;;;2.97;;
85035;SDS011;75357;49.780;9.448;2024-03-17T12:29:36;4.03;;;2.83;;
85035;SDS011;75357;49.780;9.448;2024-03-17T12:34:49;3.27;;;2.80;;
85035;SDS011;75357;49.780;9.448;2024-03-17T12:37:18;4.67;;;2.70;;
85035;SDS011;75357;49.780;9.448;2024-03-17T12:39:46;3.43;;;2.53;;
85035;SDS011;75357;49.780;9.448;2024-03-17T12:42:13;5.50;;;2.80;;
85035;SDS011;75357;49.780;9.448;2024-03-17T12:44:47;6.33;;;2.67;;
85035;SDS011;75357;49.780;9.448;2024-03-17T12:47:24;4.20;;;2.50;;
85035;SDS011;75357;49.780;9.448;2024-03-17T12:49:52;4.67;;;2.43;;
85035;SDS011;75357;49.780;9.448;2024-03-17T12:55:15;3.23;;;2.33;;
85035;SDS011;75357;49.780;9.448;2024-03-17T13:00:47;5.83;;;2.70;;
85035;SDS011;75357;49.780;9.448;2024-03-17T13:03:24;3.70;;;2.50;;
85035;SDS011;75357;49.780;9.448;2024-03-17T13:05:53;3.87;;;2.17;;
85035;SDS011;75357;49.780;9.448;2024-03-17T13:08:20;2.83;;;2.30;;
85035;SDS011;75357;49.780;9.448;2024-03-17T13:10:49;4.83;;;2.33;;
85035;SDS011;75357;49.780;9.448;2024-03-17T13:13:16;4.13;;;2.10;;
85035;SDS011;75357;49.780;9.448;2024-03-17T13:15:43;5.83;;;2.23;;
85035;SDS011;75357;49.780;9.448;2024-03-17T13:18:15;4.83;;;2.30;;
85035;SDS011;75357;49.780;9.448;2024-03-17T13:20:49;5.43;;;2.13;;
85035;SDS011;75357;49.780;9.448;2024-03-17T13:23:17;3.27;;;2.00;;
85035;SDS011;75357;49.780;9.448;2024-03-17T13:25:45;4.27;;;2.17;;
85035;SDS011;75357;49.780;9.448;2024-03-17T13:28:13;2.73;;;2.10;;
85035;SDS011;75357;49.780;9.448;2024-03-17T13:30:41;2.73;;;2.00;;
85035;SDS011;75357;49.780;9.448;2024-03-17T13:33:09;3.87;;;2.00;;
85035;SDS011;75357;49.780;9.448;2024-03-17T13:35:38;2.53;;;1.80;;
85035;SDS011;75357;49.780;9.448;2024-03-17T13:38:07;3.57;;;1.80;;
85035;SDS011;75357;49.780;9.448;2024-03-17T13:40:36;2.83;;;1.73;;
85035;SDS011;75357;49.780;9.448;2024-03-17T13:43:04;5.00;;;1.90;;
85035;SDS011;75357;49.780;9.448;2024-03-17T13:45:39;3.83;;;1.90;;
85035;SDS011;75357;49.780;9.448;2024-03-17T13:48:08;4.33;;;1.83;;
85035;SDS011;75357;49.780;9.448;2024-03-17T13:50:40;2.50;;;1.70;;
85035;SDS011;75357;49.780;9.448;2024-03-17T13:53:10;5.30;;;2.23;;
85035;SDS011;75357;49.780;9.448;2024-03-17T13:55:38;2.40;;;1.70;;
85035;SDS011;75357;49.780;9.448;2024-03-17T13:58:05;3.73;;;1.90;;
85035;SDS011;75357;49.780;9.448;2024-03-17T14:00:32;2.60;;;2.10;;
85035;SDS011;75357;49.780;9.448;2024-03-17T14:03:03;2.00;;;1.80;;
85035;SDS011;75357;49.780;9.448;2024-03-17T14:05:31;2.57;;;1.80;;
85035;SDS011;75357;49.780;9.448;2024-03-17T14:08:00;4.77;;;2.00;;
85035;SDS011;75357;49.780;9.448;2024-03-17T14:10:30;2.63;;;1.70;;
85035;SDS011;75357;49.780;9.448;2024-03-17T14:12:57;3.33;;;1.70;;
85035;SDS011;75357;49.780;9.448;2024-03-17T14:15:24;4.00;;;1.80;;
85035;SDS011;75357;49.780;9.448;2024-03-17T14:17:52;3.33;;;2.20;;
85035;SDS011;75357;49.780;9.448;2024-03-17T14:20:19;4.17;;;2.27;;
85035;SDS011;75357;49.780;9.448;2024-03-17T14:22:46;3.17;;;1.90;;
85035;SDS011;75357;49.780;9.448;2024-03-17T14:25:18;2.83;;;1.77;;
85035;SDS011;75357;49.780;9.448;2024-03-17T14:27:47;3.87;;;1.80;;
85035;SDS011;75357;49.780;9.448;2024-03-17T14:30:15;2.73;;;1.80;;
85035;SDS011;75357;49.780;9.448;2024-03-17T14:32:44;4.23;;;1.77;;
85035;SDS011;75357;49.780;9.448;2024-03-17T14:35:15;3.27;;;1.97;;
85035;SDS011;75357;49.780;9.448;2024-03-17T14:37:44;3.23;;;1.90;;
85035;SDS011;75357;49.780;9.448;2024-03-17T14:40:13;3.20;;;1.97;;
85035;SDS011;75357;49.780;9.448;2024-03-17T14:42:47;3.43;;;1.90;;
85035;SDS011;75357;49.780;9.448;2024-03-17T14:45:15;3.57;;;2.20;;
85035;SDS011;75357;49.780;9.448;2024-03-17T14:47:44;2.63;;;2.00;;
85035;SDS011;75357;49.780;9.448;2024-03-17T14:50:12;3.03;;;1.90;;
85035;SDS011;75357;49.780;9.448;2024-03-17T14:52:39;2.63;;;1.80;;
85035;SDS011;75357;49.780;9.448;2024-03-17T14:55:07;5.90;;;2.07;;
85035;SDS011;75357;49.780;9.448;2024-03-17T14:57:37;4.33;;;1.90;;
85035;SDS011;75357;49.780;9.448;2024-03-17T15:00:06;3.30;;;1.63;;
85035;SDS011;75357;49.780;9.448;2024-03-17T15:02:42;2.73;;;1.90;;
85035;SDS011;75357;49.780;9.448;2024-03-17T15:05:11;3.00;;;2.10;;
85035;SDS011;75357;49.780;9.448;2024-03-17T15:07:40;4.17;;;2.03;;
85035;SDS011;75357;49.780;9.448;2024-03-17T15:10:07;3.03;;;2.07;;
85035;SDS011;75357;49.780;9.448;2024-03-17T15:12:35;3.13;;;1.83;;
85035;SDS011;75357;49.780;9.448;2024-03-17T15:15:02;3.93;;;2.03;;
85035;SDS011;75357;49.780;9.448;2024-03-17T15:17:30;5.67;;;2.47;;
85035;SDS011;75357;49.780;9.448;2024-03-17T15:19:58;2.93;;;1.90;;
85035;SDS011;75357;49.780;9.448;2024-03-17T15:22:27;2.87;;;1.87;;
85035;SDS011;75357;49.780;9.448;2024-03-17T15:24:54;4.00;;;2.40;;
85035;SDS011;75357;49.780;9.448;2024-03-17T15:27:22;4.33;;;2.40;;
85035;SDS011;75357;49.780;9.448;2024-03-17T15:29:49;4.37;;;2.50;;
85035;SDS011;75357;49.780;9.448;2024-03-17T15:32:15;8.70;;;5.40;;
85035;SDS011;75357;49.780;9.448;2024-03-17T15:34:43;5.63;;;3.70;;
85035;SDS011;75357;49.780;9.448;2024-03-17T15:37:10;4.33;;;2.87;;
85035;SDS011;75357;49.780;9.448;2024-03-17T15:39:38;3.37;;;1.97;;
85035;SDS011;75357;49.780;9.448;2024-03-17T15:42:05;3.67;;;2.23;;